sensor_id;sensor_type;location;lat;lon;timestamp;pressure;altitude;pressure_sealevel;temperature;humidity
76156;BME280;64906;51.290;7.348;2023-08-06T00:00:21;97680.09;;;20.65;58.70
76156;BME280;64906;51.290;7.348;2023-08-06T00:02:47;97678.00;;;20.62;58.74
76156;BME280;64906;51.290;7.348;2023-08-06T00:05:12;97683.66;;;20.65;58.35
76156;BME280;64906;51.290;7.348;2023-08-06T00:07:37;97681.69;;;20.66;58.76
76156;BME280;64906;51.290;7.348;2023-08-06T00:10:03;97677.53;;;20.68;58.54
76156;BME280;64906;51.290;7.348;2023-08-06T00:12:28;97666.38;;;20.65;58.46
76156;BME280;64906;51.290;7.348;2023-08-06T00:14:54;97670.25;;;20.64;58.48
76156;BME280;64906;51.290;7.348;2023-08-06T00:17:19;97668.63;;;20.63;58.75
76156;BME280;64906;51.290;7.348;2023-08-06T00:19:45;97670.41;;;20.59;58.56
76156;BME280;64906;51.290;7.348;2023-08-06T00:22:10;97660.41;;;20.63;58.27
76156;BME280;64906;51.290;7.348;2023-08-06T00:24:36;97653.16;;;20.67;58.13
76156;BME280;64906;51.290;7.348;2023-08-06T00:27:02;97657.84;;;20.66;58.51
76156;BME280;64906;51.290;7.348;2023-08-06T00:29:27;97648.94;;;20.61;58.80
76156;BME280;64906;51.290;7.348;2023-08-06T00:31:52;97650.75;;;20.65;58.30
76156;BME280;64906;51.290;7.348;2023-08-06T00:34:17;97648.47;;;20.59;58.88
76156;BME280;64906;51.290;7.348;2023-08-06T00:36:43;97647.34;;;20.60;58.91
76156;BME280;64906;51.290;7.348;2023-08-06T00:39:09;97643.94;;;20.63;58.41
76156;BME280;64906;51.290;7.348;2023-08-06T00:41:34;97637.34;;;20.55;58.72
76156;BME280;64906;51.290;7.348;2023-08-06T00:44:00;97643.00;;;20.59;58.39
76156;BME280;64906;51.290;7.348;2023-08-06T00:46:26;97640.91;;;20.56;58.97
76156;BME280;64906;51.290;7.348;2023-08-06T00:48:52;97633.94;;;20.58;58.93
76156;BME280;64906;51.290;7.348;2023-08-06T00:51:17;97641.38;;;20.58;58.75
76156;BME280;64906;51.290;7.348;2023-08-06T00:53:43;97632.97;;;20.46;59.05
76156;BME280;64906;51.290;7.348;2023-08-06T00:56:09;97634.91;;;20.45;58.86
76156;BME280;64906;51.290;7.348;2023-08-06T00:58:35;97624.56;;;20.42;59.08
76156;BME280;64906;51.290;7.348;2023-08-06T01:01:01;97628.44;;;20.50;59.52
76156;BME280;64906;51.290;7.348;2023-08-06T01:03:26;97626.19;;;20.52;58.59
76156;BME280;64906;51.290;7.348;2023-08-06T01:05:52;97624.09;;;20.49;59.02
76156;BME280;64906;51.290;7.348;2023-08-06T01:08:49;97628.94;;;20.52;58.46
76156;BME280;64906;51.290;7.348;2023-08-06T01:11:33;97623.63;;;20.55;58.48
76156;BME280;64906;51.290;7.348;2023-08-06T01:14:37;97624.88;;;20.49;58.90
76156;BME280;64906;51.290;7.348;2023-08-06T01:17:08;97627.03;;;20.52;58.66
76156;BME280;64906;51.290;7.348;2023-08-06T01:19:33;97619.72;;;20.48;59.46
76156;BME280;64906;51.290;7.348;2023-08-06T01:21:58;97619.56;;;20.53;58.66
76156;BME280;64906;51.290;7.348;2023-08-06T01:24:23;97625.38;;;20.51;58.44
76156;BME280;64906;51.290;7.348;2023-08-06T01:26:56;97619.41;;;20.49;58.79
76156;BME280;64906;51.290;7.348;2023-08-06T01:29:29;97625.88;;;20.53;58.81
76156;BME280;64906;51.290;7.348;2023-08-06T01:31:56;97622.66;;;20.51;58.37
76156;BME280;64906;51.290;7.348;2023-08-06T01:34:29;97619.91;;;20.51;59.05
76156;BME280;64906;51.290;7.348;2023-08-06T01:36:56;97619.41;;;20.41;58.84
76156;BME280;64906;51.290;7.348;2023-08-06T01:39:22;97618.94;;;20.47;59.14
76156;BME280;64906;51.290;7.348;2023-08-06T01:41:50;97617.00;;;20.48;58.85
76156;BME280;64906;51.290;7.348;2023-08-06T01:44:16;97614.91;;;20.53;58.49
76156;BME280;64906;51.290;7.348;2023-08-06T01:46:41;97617.16;;;20.51;58.86
76156;BME280;64906;51.290;7.348;2023-08-06T01:49:07;97613.31;;;20.52;58.99
76156;BME280;64906;51.290;7.348;2023-08-06T01:51:32;97603.78;;;20.50;58.44
76156;BME280;64906;51.290;7.348;2023-08-06T01:53:57;97605.41;;;20.51;59.00
76156;BME280;64906;51.290;7.348;2023-08-06T01:56:23;97604.59;;;20.50;58.91
76156;BME280;64906;51.290;7.348;2023-08-06T01:58:48;97599.44;;;20.49;59.27
76156;BME280;64906;51.290;7.348;2023-08-06T02:01:13;97596.53;;;20.54;58.72
76156;BME280;64906;51.290;7.348;2023-08-06T02:03:38;97588.63;;;20.44;59.17
76156;BME280;64906;51.290;7.348;2023-08-06T02:06:04;97591.03;;;20.45;58.56
76156;BME280;64906;51.290;7.348;2023-08-06T02:08:29;97586.50;;;20.49;58.49
76156;BME280;64906;51.290;7.348;2023-08-06T02:10:54;97593.47;;;20.47;59.07
76156;BME280;64906;51.290;7.348;2023-08-06T02:13:20;97591.22;;;20.49;59.03
76156;BME280;64906;51.290;7.348;2023-08-06T02:15:45;97591.84;;;20.46;58.71
76156;BME280;64906;51.290;7.348;2023-08-06T02:18:14;97584.09;;;20.48;59.19
76156;BME280;64906;51.290;7.348;2023-08-06T02:20:42;97588.16;;;20.50;58.19
76156;BME280;64906;51.290;7.348;2023-08-06T02:23:08;97590.06;;;20.50;58.46
76156;BME280;64906;51.290;7.348;2023-08-06T02:25:34;97584.09;;;20.48;58.96
76156;BME280;64906;51.290;7.348;2023-08-06T02:27:59;97582.97;;;20.49;58.69
76156;BME280;64906;51.290;7.348;2023-08-06T02:30:24;97572.50;;;20.51;58.76
76156;BME280;64906;51.290;7.348;2023-08-06T02:32:50;97575.53;;;20.49;58.82
76156;BME280;64906;51.290;7.348;2023-08-06T02:35:15;97581.03;;;20.49;58.89
76156;BME280;64906;51.290;7.348;2023-08-06T02:37:40;97577.00;;;20.47;58.77
76156;BME280;64906;51.290;7.348;2023-08-06T02:40:06;97578.28;;;20.49;58.55
76156;BME280;64906;51.290;7.348;2023-08-06T02:42:31;97569.09;;;20.45;59.17
76156;BME280;64906;51.290;7.348;2023-08-06T02:44:57;97571.69;;;20.50;58.54
76156;BME280;64906;51.290;7.348;2023-08-06T02:47:22;97567.81;;;20.51;58.44
76156;BME280;64906;51.290;7.348;2023-08-06T02:49:48;97563.16;;;20.52;58.70
76156;BME280;64906;51.290;7.348;2023-08-06T02:52:14;97555.91;;;20.47;58.77
76156;BME280;64906;51.290;7.348;2023-08-06T02:54:39;97555.72;;;20.44;58.88
76156;BME280;64906;51.290;7.348;2023-08-06T02:57:05;97549.44;;;20.43;58.92
76156;BME280;64906;51.290;7.348;2023-08-06T02:59:31;97544.94;;;20.47;58.92
76156;BME280;64906;51.290;7.348;2023-08-06T03:01:56;97544.75;;;20.44;58.79
76156;BME280;64906;51.290;7.348;2023-08-06T03:04:21;97545.72;;;20.48;58.81
76156;BME280;64906;51.290;7.348;2023-08-06T03:06:47;97541.38;;;20.47;58.76
76156;BME280;64906;51.290;7.348;2023-08-06T03:09:14;97539.44;;;20.47;58.56
76156;BME280;64906;51.290;7.348;2023-08-06T03:11:39;97535.25;;;20.50;58.82
76156;BME280;64906;51.290;7.348;2023-08-06T03:14:04;97528.81;;;20.46;58.95
76156;BME280;64906;51.290;7.348;2023-08-06T03:16:29;97535.41;;;20.45;58.71
76156;BME280;64906;51.290;7.348;2023-08-06T03:18:55;97524.59;;;20.48;58.45
76156;BME280;64906;51.290;7.348;2023-08-06T03:21:20;97528.81;;;20.46;58.30
76156;BME280;64906;51.290;7.348;2023-08-06T03:23:49;97528.81;;;20.46;58.63
76156;BME280;64906;51.290;7.348;2023-08-06T03:26:14;97524.94;;;20.47;58.74
76156;BME280;64906;51.290;7.348;2023-08-06T03:28:39;97519.75;;;20.37;58.90
76156;BME280;64906;51.290;7.348;2023-08-06T03:31:05;97526.69;;;20.43;58.99
76156;BME280;64906;51.290;7.348;2023-08-06T03:33:30;97526.38;;;20.44;58.70
76156;BME280;64906;51.290;7.348;2023-08-06T03:35:56;97529.59;;;20.46;58.39
76156;BME280;64906;51.290;7.348;2023-08-06T03:38:21;97534.75;;;20.48;58.31
76156;BME280;64906;51.290;7.348;2023-08-06T03:40:47;97533.31;;;20.50;58.52
76156;BME280;64906;51.290;7.348;2023-08-06T03:43:13;97525.09;;;20.42;58.51
76156;BME280;64906;51.290;7.348;2023-08-06T03:45:40;97530.88;;;20.40;58.82
76156;BME280;64906;51.290;7.348;2023-08-06T03:48:05;97531.38;;;20.42;58.52
76156;BME280;64906;51.290;7.348;2023-08-06T03:50:31;97525.56;;;20.44;58.40
76156;BME280;64906;51.290;7.348;2023-08-06T03:52:56;97519.94;;;20.40;58.69
76156;BME280;64906;51.290;7.348;2023-08-06T03:55:21;97522.50;;;20.45;58.54
76156;BME280;64906;51.290;7.348;2023-08-06T03:57:47;97515.44;;;20.44;58.89
76156;BME280;64906;51.290;7.348;2023-08-06T04:00:12;97522.00;;;20.43;58.62
76156;BME280;64906;51.290;7.348;2023-08-06T04:02:38;97514.44;;;20.49;58.43
76156;BME280;64906;51.290;7.348;2023-08-06T04:05:03;97510.41;;;20.46;58.26
76156;BME280;64906;51.290;7.348;2023-08-06T04:07:28;97513.97;;;20.47;58.75
76156;BME280;64906;51.290;7.348;2023-08-06T04:10:02;97515.56;;;20.48;58.86
76156;BME280;64906;51.290;7.348;2023-08-06T04:12:28;97512.97;;;20.43;58.80
76156;BME280;64906;51.290;7.348;2023-08-06T04:14:54;97512.69;;;20.44;58.64
76156;BME280;64906;51.290;7.348;2023-08-06T04:17:20;97518.16;;;20.44;58.32
76156;BME280;64906;51.290;7.348;2023-08-06T04:19:50;97520.59;;;20.46;58.57
76156;BME280;64906;51.290;7.348;2023-08-06T04:22:15;97513.94;;;20.38;58.76
76156;BME280;64906;51.290;7.348;2023-08-06T04:24:41;97517.34;;;20.44;58.90
76156;BME280;64906;51.290;7.348;2023-08-06T04:27:08;97516.53;;;20.43;58.74
76156;BME280;64906;51.290;7.348;2023-08-06T04:29:33;97512.81;;;20.48;58.50
76156;BME280;64906;51.290;7.348;2023-08-06T04:31:58;97522.34;;;20.42;58.72
76156;BME280;64906;51.290;7.348;2023-08-06T04:34:24;97514.13;;;20.42;58.42
76156;BME280;64906;51.290;7.348;2023-08-06T04:36:49;97515.91;;;20.38;58.82
76156;BME280;64906;51.290;7.348;2023-08-06T04:39:14;97516.53;;;20.35;59.10
76156;BME280;64906;51.290;7.348;2023-08-06T04:41:40;97513.94;;;20.38;58.91
76156;BME280;64906;51.290;7.348;2023-08-06T04:44:05;97513.63;;;20.40;59.03
76156;BME280;64906;51.290;7.348;2023-08-06T04:46:30;97516.69;;;20.38;58.38
76156;BME280;64906;51.290;7.348;2023-08-06T04:48:56;97509.59;;;20.37;58.73
76156;BME280;64906;51.290;7.348;2023-08-06T04:51:21;97512.03;;;20.39;58.64
76156;BME280;64906;51.290;7.348;2023-08-06T04:53:46;97507.69;;;20.38;58.87
76156;BME280;64906;51.290;7.348;2023-08-06T04:56:11;97506.88;;;20.37;58.71
76156;BME280;64906;51.290;7.348;2023-08-06T04:58:37;97504.13;;;20.37;58.86
76156;BME280;64906;51.290;7.348;2023-08-06T05:01:02;97502.19;;;20.38;59.05
76156;BME280;64906;51.290;7.348;2023-08-06T05:03:27;97509.28;;;20.39;58.85
76156;BME280;64906;51.290;7.348;2023-08-06T05:05:53;97513.31;;;20.41;58.19
76156;BME280;64906;51.290;7.348;2023-08-06T05:08:18;97504.44;;;20.36;59.13
76156;BME280;64906;51.290;7.348;2023-08-06T05:10:44;97509.78;;;20.41;58.80
76156;BME280;64906;51.290;7.348;2023-08-06T05:13:10;97512.50;;;20.41;58.90
76156;BME280;64906;51.290;7.348;2023-08-06T05:15:35;97522.34;;;20.42;58.60
76156;BME280;64906;51.290;7.348;2023-08-06T05:18:00;97519.28;;;20.43;58.67
76156;BME280;64906;51.290;7.348;2023-08-06T05:20:26;97523.00;;;20.39;58.58
76156;BME280;64906;51.290;7.348;2023-08-06T05:22:51;97515.09;;;20.37;58.82
76156;BME280;64906;51.290;7.348;2023-08-06T05:25:16;97522.00;;;20.43;58.34
76156;BME280;64906;51.290;7.348;2023-08-06T05:27:41;97519.94;;;20.49;58.16
76156;BME280;64906;51.290;7.348;2023-08-06T05:30:07;97524.75;;;20.52;57.81
76156;BME280;64906;51.290;7.348;2023-08-06T05:32:33;97520.56;;;20.54;58.18
76156;BME280;64906;51.290;7.348;2023-08-06T05:34:58;97524.75;;;20.52;58.28
76156;BME280;64906;51.290;7.348;2023-08-06T05:37:23;97528.00;;;20.54;58.10
76156;BME280;64906;51.290;7.348;2023-08-06T05:39:49;97526.69;;;20.51;58.23
76156;BME280;64906;51.290;7.348;2023-08-06T05:42:14;97525.25;;;20.54;57.90
76156;BME280;64906;51.290;7.348;2023-08-06T05:44:40;97523.28;;;20.54;57.98
76156;BME280;64906;51.290;7.348;2023-08-06T05:47:05;97523.00;;;20.47;58.23
76156;BME280;64906;51.290;7.348;2023-08-06T05:49:30;97525.59;;;20.52;57.69
76156;BME280;64906;51.290;7.348;2023-08-06T05:51:55;97522.50;;;20.54;58.22
76156;BME280;64906;51.290;7.348;2023-08-06T05:54:21;97528.00;;;20.54;57.94
76156;BME280;64906;51.290;7.348;2023-08-06T05:56:46;97523.28;;;20.54;58.17
76156;BME280;64906;51.290;7.348;2023-08-06T05:59:12;97522.03;;;20.52;57.76
76156;BME280;64906;51.290;7.348;2023-08-06T06:01:37;97519.13;;;20.57;58.13
76156;BME280;64906;51.290;7.348;2023-08-06T06:04:03;97519.78;;;20.62;57.90
76156;BME280;64906;51.290;7.348;2023-08-06T06:06:28;97527.19;;;20.62;57.60
76156;BME280;64906;51.290;7.348;2023-08-06T06:08:53;97524.28;;;20.58;57.73
76156;BME280;64906;51.290;7.348;2023-08-06T06:11:19;97529.44;;;20.60;57.56
76156;BME280;64906;51.290;7.348;2023-08-06T06:13:47;97529.75;;;20.58;57.58
76156;BME280;64906;51.290;7.348;2023-08-06T06:16:12;97535.41;;;20.62;57.36
76156;BME280;64906;51.290;7.348;2023-08-06T06:18:37;97536.06;;;20.59;58.10
76156;BME280;64906;51.290;7.348;2023-08-06T06:21:03;97533.47;;;20.62;57.61
76156;BME280;64906;51.290;7.348;2023-08-06T06:23:28;97533.00;;;20.60;57.60
76156;BME280;64906;51.290;7.348;2023-08-06T06:25:53;97533.31;;;20.59;57.88
76156;BME280;64906;51.290;7.348;2023-08-06T06:28:19;97544.13;;;20.64;57.85
76156;BME280;64906;51.290;7.348;2023-08-06T06:30:45;97539.44;;;20.64;57.83
76156;BME280;64906;51.290;7.348;2023-08-06T06:33:10;97538.66;;;20.64;57.77
76156;BME280;64906;51.290;7.348;2023-08-06T06:35:35;97538.66;;;20.64;57.75
76156;BME280;64906;51.290;7.348;2023-08-06T06:38:01;97537.50;;;20.65;57.95
76156;BME280;64906;51.290;7.348;2023-08-06T06:40:27;97533.47;;;20.62;57.40
76156;BME280;64906;51.290;7.348;2023-08-06T06:42:53;97526.53;;;20.65;57.31
76156;BME280;64906;51.290;7.348;2023-08-06T06:45:18;97528.47;;;20.64;57.39
76156;BME280;64906;51.290;7.348;2023-08-06T06:47:43;97527.34;;;20.65;57.18
76156;BME280;64906;51.290;7.348;2023-08-06T06:50:09;97525.38;;;20.66;57.10
76156;BME280;64906;51.290;7.348;2023-08-06T06:52:34;97533.63;;;20.66;57.25
76156;BME280;64906;51.290;7.348;2023-08-06T06:54:59;97526.38;;;20.70;57.25
76156;BME280;64906;51.290;7.348;2023-08-06T06:57:25;97533.63;;;20.66;57.71
76156;BME280;64906;51.290;7.348;2023-08-06T06:59:50;97531.84;;;20.70;57.23
76156;BME280;64906;51.290;7.348;2023-08-06T07:02:15;97528.94;;;20.75;57.38
76156;BME280;64906;51.290;7.348;2023-08-06T07:04:41;97524.91;;;20.81;57.56
76156;BME280;64906;51.290;7.348;2023-08-06T07:07:06;97530.88;;;20.83;57.26
76156;BME280;64906;51.290;7.348;2023-08-06T07:09:31;97529.41;;;20.85;57.16
76156;BME280;64906;51.290;7.348;2023-08-06T07:11:56;97526.81;;;20.80;57.08
76156;BME280;64906;51.290;7.348;2023-08-06T07:14:24;97526.81;;;20.80;57.53
76156;BME280;64906;51.290;7.348;2023-08-06T07:16:49;97522.16;;;20.81;57.29
76156;BME280;64906;51.290;7.348;2023-08-06T07:19:14;97521.22;;;20.77;57.20
76156;BME280;64906;51.290;7.348;2023-08-06T07:21:40;97524.09;;;20.80;57.45
76156;BME280;64906;51.290;7.348;2023-08-06T07:24:05;97525.06;;;20.76;57.81
76156;BME280;64906;51.290;7.348;2023-08-06T07:26:30;97527.81;;;20.76;57.62
76156;BME280;64906;51.290;7.348;2023-08-06T07:28:55;97523.63;;;20.78;57.38
76156;BME280;64906;51.290;7.348;2023-08-06T07:31:21;97541.03;;;20.74;57.75
76156;BME280;64906;51.290;7.348;2023-08-06T07:33:46;97536.69;;;20.73;57.57
76156;BME280;64906;51.290;7.348;2023-08-06T07:36:13;97542.16;;;20.73;57.54
76156;BME280;64906;51.290;7.348;2023-08-06T07:38:39;97545.41;;;20.75;57.47
76156;BME280;64906;51.290;7.348;2023-08-06T07:41:04;97550.22;;;20.78;57.60
76156;BME280;64906;51.290;7.348;2023-08-06T07:43:30;97551.50;;;20.80;57.19
76156;BME280;64906;51.290;7.348;2023-08-06T07:45:59;97552.66;;;20.79;57.37
76156;BME280;64906;51.290;7.348;2023-08-06T07:48:25;97550.22;;;20.78;57.59
76156;BME280;64906;51.290;7.348;2023-08-06T07:50:52;97546.03;;;20.80;57.52
76156;BME280;64906;51.290;7.348;2023-08-06T07:53:19;97557.31;;;20.79;57.48
76156;BME280;64906;51.290;7.348;2023-08-06T07:55:50;97557.16;;;20.84;56.92
76156;BME280;64906;51.290;7.348;2023-08-06T07:58:16;97555.88;;;20.81;57.48
76156;BME280;64906;51.290;7.348;2023-08-06T08:00:42;97549.59;;;20.81;57.60
76156;BME280;64906;51.290;7.348;2023-08-06T08:03:11;97553.47;;;20.80;57.22
76156;BME280;64906;51.290;7.348;2023-08-06T08:05:37;97555.06;;;20.81;57.11
76156;BME280;64906;51.290;7.348;2023-08-06T08:08:03;97556.22;;;20.80;57.19
76156;BME280;64906;51.290;7.348;2023-08-06T08:10:28;97556.22;;;20.80;57.11
76156;BME280;64906;51.290;7.348;2023-08-06T08:12:53;97555.06;;;20.81;57.02
76156;BME280;64906;51.290;7.348;2023-08-06T08:15:21;97558.63;;;20.81;57.05
76156;BME280;64906;51.290;7.348;2023-08-06T08:17:47;97562.66;;;20.84;57.38
76156;BME280;64906;51.290;7.348;2023-08-06T08:20:13;97555.06;;;20.89;57.53
76156;BME280;64906;51.290;7.348;2023-08-06T08:22:38;97554.75;;;20.91;57.78
76156;BME280;64906;51.290;7.348;2023-08-06T08:25:04;97557.66;;;20.86;58.33
76156;BME280;64906;51.290;7.348;2023-08-06T08:27:30;97562.47;;;20.89;58.56
76156;BME280;64906;51.290;7.348;2023-08-06T08:29:55;97561.53;;;20.85;58.58
76156;BME280;64906;51.290;7.348;2023-08-06T08:32:21;97562.47;;;20.89;59.12
76156;BME280;64906;51.290;7.348;2023-08-06T08:34:46;97567.31;;;20.92;59.50
76156;BME280;64906;51.290;7.348;2023-08-06T08:37:13;97564.91;;;20.90;59.70
76156;BME280;64906;51.290;7.348;2023-08-06T08:39:38;97568.78;;;20.89;59.99
76156;BME280;64906;51.290;7.348;2023-08-06T08:42:05;97576.19;;;20.89;59.78
76156;BME280;64906;51.290;7.348;2023-08-06T08:44:32;97568.78;;;20.89;60.10
76156;BME280;64906;51.290;7.348;2023-08-06T08:46:59;97567.63;;;20.90;60.15
76156;BME280;64906;51.290;7.348;2023-08-06T08:49:26;97565.22;;;20.89;59.86
76156;BME280;64906;51.290;7.348;2023-08-06T08:51:53;97572.34;;;20.90;60.00
76156;BME280;64906;51.290;7.348;2023-08-06T08:54:21;97570.22;;;20.87;60.26
76156;BME280;64906;51.290;7.348;2023-08-06T08:56:48;97569.59;;;20.90;60.50
76156;BME280;64906;51.290;7.348;2023-08-06T08:59:13;97575.53;;;20.92;60.41
76156;BME280;64906;51.290;7.348;2023-08-06T09:01:39;97572.34;;;20.90;60.06
76156;BME280;64906;51.290;7.348;2023-08-06T09:04:07;97576.19;;;20.89;60.54
76156;BME280;64906;51.290;7.348;2023-08-06T09:06:36;97578.78;;;20.94;60.38
76156;BME280;64906;51.290;7.348;2023-08-06T09:09:09;97587.66;;;20.91;60.52
76156;BME280;64906;51.290;7.348;2023-08-06T09:11:41;97586.84;;;20.90;60.38
76156;BME280;64906;51.290;7.348;2023-08-06T09:14:07;97591.22;;;20.91;60.90
76156;BME280;64906;51.290;7.348;2023-08-06T09:16:37;97590.72;;;20.89;60.58
76156;BME280;64906;51.290;7.348;2023-08-06T09:19:09;97585.25;;;20.89;60.74
76156;BME280;64906;51.290;7.348;2023-08-06T09:21:38;97587.16;;;20.89;60.82
76156;BME280;64906;51.290;7.348;2023-08-06T09:24:11;97591.88;;;20.88;60.90
76156;BME280;64906;51.290;7.348;2023-08-06T09:26:41;97593.16;;;20.91;60.63
76156;BME280;64906;51.290;7.348;2023-08-06T09:29:07;97599.94;;;21.02;59.82
76156;BME280;64906;51.290;7.348;2023-08-06T09:31:40;97600.59;;;20.99;60.23
76156;BME280;64906;51.290;7.348;2023-08-06T09:34:16;97600.91;;;20.97;60.23
76156;BME280;64906;51.290;7.348;2023-08-06T09:36:46;97596.25;;;20.98;60.58
76156;BME280;64906;51.290;7.348;2023-08-06T09:39:16;97600.41;;;20.95;60.59
76156;BME280;64906;51.290;7.348;2023-08-06T09:41:42;97591.06;;;20.96;60.35
76156;BME280;64906;51.290;7.348;2023-08-06T09:46:40;97606.25;;;21.02;60.87
76156;BME280;64906;51.290;7.348;2023-08-06T09:49:06;97602.84;;;20.97;60.63
76156;BME280;64906;51.290;7.348;2023-08-06T09:51:34;97613.31;;;21.03;60.24
76156;BME280;64906;51.290;7.348;2023-08-06T09:54:00;97617.06;;;21.07;60.67
76156;BME280;64906;51.290;7.348;2023-08-06T09:56:26;97608.00;;;21.07;61.03
76156;BME280;64906;51.290;7.348;2023-08-06T09:58:52;97616.25;;;21.07;60.93
76156;BME280;64906;51.290;7.348;2023-08-06T10:01:18;97615.75;;;21.05;60.52
76156;BME280;64906;51.290;7.348;2023-08-06T10:03:44;97613.00;;;21.05;59.52
76156;BME280;64906;51.290;7.348;2023-08-06T10:06:10;97607.72;;;21.00;58.90
76156;BME280;64906;51.290;7.348;2023-08-06T10:08:35;97608.16;;;21.02;59.09
76156;BME280;64906;51.290;7.348;2023-08-06T10:11:02;97612.53;;;21.03;59.22
76156;BME280;64906;51.290;7.348;2023-08-06T10:13:30;97609.63;;;21.08;58.77
76156;BME280;64906;51.290;7.348;2023-08-06T10:15:55;97611.91;;;21.06;58.21
76156;BME280;64906;51.290;7.348;2023-08-06T10:18:21;97614.16;;;21.04;58.13
76156;BME280;64906;51.290;7.348;2023-08-06T10:20:47;97612.53;;;21.03;58.66
76156;BME280;64906;51.290;7.348;2023-08-06T10:23:13;97609.47;;;21.04;58.37
76156;BME280;64906;51.290;7.348;2023-08-06T10:25:41;97606.91;;;21.08;57.92
76156;BME280;64906;51.290;7.348;2023-08-06T10:28:10;97605.91;;;21.12;58.07
76156;BME280;64906;51.290;7.348;2023-08-06T10:30:44;97608.34;;;21.14;58.13
76156;BME280;64906;51.290;7.348;2023-08-06T10:33:10;97598.50;;;21.13;58.13
76156;BME280;64906;51.290;7.348;2023-08-06T10:35:43;97604.44;;;21.15;58.10
76156;BME280;64906;51.290;7.348;2023-08-06T10:41:02;97607.34;;;21.10;58.15
76156;BME280;64906;51.290;7.348;2023-08-06T10:43:29;97605.75;;;21.09;57.93
76156;BME280;64906;51.290;7.348;2023-08-06T10:45:56;97613.81;;;21.14;57.66
76156;BME280;64906;51.290;7.348;2023-08-06T10:48:29;97612.22;;;21.13;57.93
76156;BME280;64906;51.290;7.348;2023-08-06T10:51:00;97612.06;;;21.09;57.75
76156;BME280;64906;51.290;7.348;2023-08-06T10:53:25;97611.91;;;21.06;58.23
76156;BME280;64906;51.290;7.348;2023-08-06T10:55:51;97615.75;;;21.05;58.28
76156;BME280;64906;51.290;7.348;2023-08-06T10:58:16;97614.31;;;21.07;57.88
76156;BME280;64906;51.290;7.348;2023-08-06T11:00:42;97618.31;;;21.10;57.84
76156;BME280;64906;51.290;7.348;2023-08-06T11:03:08;97617.22;;;21.11;58.01
76156;BME280;64906;51.290;7.348;2023-08-06T11:05:33;97623.81;;;21.10;57.82
76156;BME280;64906;51.290;7.348;2023-08-06T11:07:59;97631.25;;;21.09;57.87
76156;BME280;64906;51.290;7.348;2023-08-06T11:10:24;97642.41;;;21.13;57.87
76156;BME280;64906;51.290;7.348;2023-08-06T11:12:49;97640.13;;;21.15;57.87
76156;BME280;64906;51.290;7.348;2023-08-06T11:15:15;97640.44;;;21.13;57.97
76156;BME280;64906;51.290;7.348;2023-08-06T11:17:41;97637.69;;;21.13;57.52
76156;BME280;64906;51.290;7.348;2023-08-06T11:20:08;97641.44;;;21.09;57.90
76156;BME280;64906;51.290;7.348;2023-08-06T11:22:33;97637.22;;;21.11;57.84
76156;BME280;64906;51.290;7.348;2023-08-06T11:24:59;97642.69;;;21.11;57.90
76156;BME280;64906;51.290;7.348;2023-08-06T11:27:26;97645.94;;;21.13;57.80
76156;BME280;64906;51.290;7.348;2023-08-06T11:29:52;97646.91;;;21.09;57.61
76156;BME280;64906;51.290;7.348;2023-08-06T11:32:17;97645.78;;;21.10;57.69
76156;BME280;64906;51.290;7.348;2023-08-06T11:34:43;97654.31;;;21.08;58.08
76156;BME280;64906;51.290;7.348;2023-08-06T11:37:08;97657.41;;;21.07;58.18
76156;BME280;64906;51.290;7.348;2023-08-06T11:39:35;97656.13;;;21.04;58.08
76156;BME280;64906;51.290;7.348;2023-08-06T11:42:05;97665.31;;;21.08;58.20
76156;BME280;64906;51.290;7.348;2023-08-06T11:44:32;97665.97;;;21.05;58.46
76156;BME280;64906;51.290;7.348;2023-08-06T11:46:58;97670.50;;;21.01;58.45
76156;BME280;64906;51.290;7.348;2023-08-06T11:52:22;97678.03;;;20.96;59.21
76156;BME280;64906;51.290;7.348;2023-08-06T11:55:08;97690.63;;;20.97;59.12
76156;BME280;64906;51.290;7.348;2023-08-06T11:57:38;97687.91;;;20.97;59.22
76156;BME280;64906;51.290;7.348;2023-08-06T12:00:10;97698.53;;;20.90;59.46
76156;BME280;64906;51.290;7.348;2023-08-06T12:02:36;97705.78;;;20.86;59.58
76156;BME280;64906;51.290;7.348;2023-08-06T12:05:09;97716.25;;;20.84;59.15
76156;BME280;64906;51.290;7.348;2023-08-06T12:07:37;97700.78;;;20.88;58.92
76156;BME280;64906;51.290;7.348;2023-08-06T12:10:03;97720.31;;;20.95;58.49
76156;BME280;64906;51.290;7.348;2023-08-06T12:12:28;97719.19;;;20.96;58.74
76156;BME280;64906;51.290;7.348;2023-08-06T12:14:54;97712.72;;;20.92;58.47
76156;BME280;64906;51.290;7.348;2023-08-06T12:17:20;97704.03;;;20.90;58.57
76156;BME280;64906;51.290;7.348;2023-08-06T12:19:45;97712.41;;;20.85;58.92
76156;BME280;64906;51.290;7.348;2023-08-06T12:22:12;97722.41;;;20.89;58.38
76156;BME280;64906;51.290;7.348;2023-08-06T12:24:39;97727.06;;;20.89;58.79
76156;BME280;64906;51.290;7.348;2023-08-06T12:27:04;97725.47;;;20.88;58.73
76156;BME280;64906;51.290;7.348;2023-08-06T12:29:30;97731.94;;;20.83;58.58
76156;BME280;64906;51.290;7.348;2023-08-06T12:31:56;97734.66;;;20.83;58.52
76156;BME280;64906;51.290;7.348;2023-08-06T12:34:21;97731.44;;;20.81;59.15
76156;BME280;64906;51.290;7.348;2023-08-06T12:36:46;97729.97;;;20.84;58.56
76156;BME280;64906;51.290;7.348;2023-08-06T12:39:12;97748.22;;;20.80;58.72
76156;BME280;64906;51.290;7.348;2023-08-06T12:41:38;97752.06;;;20.79;59.01
76156;BME280;64906;51.290;7.348;2023-08-06T12:44:03;97747.06;;;20.81;58.52
76156;BME280;64906;51.290;7.348;2023-08-06T12:46:29;97752.88;;;20.79;58.71
76156;BME280;64906;51.290;7.348;2023-08-06T12:48:54;97750.47;;;20.78;58.86
76156;BME280;64906;51.290;7.348;2023-08-06T12:51:19;97759.31;;;20.75;59.04
76156;BME280;64906;51.290;7.348;2023-08-06T12:53:44;97760.78;;;20.81;58.44
76156;BME280;64906;51.290;7.348;2023-08-06T12:56:10;97761.78;;;20.85;58.72
76156;BME280;64906;51.290;7.348;2023-08-06T12:58:35;97764.03;;;20.83;58.59
76156;BME280;64906;51.290;7.348;2023-08-06T13:01:00;97780.63;;;20.78;59.10
76156;BME280;64906;51.290;7.348;2023-08-06T13:03:25;97784.00;;;20.75;59.26